sensor_id;sensor_type;location;lat;lon;timestamp;pressure;altitude;pressure_sealevel;temperature;humidity
71970;BME280;59838;52.152;5.436;2023-03-22T00:02:01;101061.59;;;8.65;97.48
71970;BME280;59838;52.152;5.436;2023-03-22T00:04:29;101056.41;;;8.65;97.53
71970;BME280;59838;52.152;5.436;2023-03-22T00:06:56;101055.16;;;8.60;97.56
71970;BME280;59838;52.152;5.436;2023-03-22T00:09:22;101046.75;;;8.58;97.76
71970;BME280;59838;52.152;5.436;2023-03-22T00:11:49;101046.91;;;8.57;97.52
71970;BME280;59838;52.152;5.436;2023-03-22T00:14:19;101047.22;;;8.54;97.63
71970;BME280;59838;52.152;5.436;2023-03-22T00:16:46;101043.50;;;8.48;97.86
71970;BME280;59838;52.152;5.436;2023-03-22T00:19:14;101039.94;;;8.41;98.08
71970;BME280;59838;52.152;5.436;2023-03-22T00:21:42;101043.00;;;8.36;98.24
71970;BME280;59838;52.152;5.436;2023-03-22T00:24:09;101038.47;;;8.38;98.41
71970;BME280;59838;52.152;5.436;2023-03-22T00:26:35;101027.63;;;8.35;98.56
71970;BME280;59838;52.152;5.436;2023-03-22T00:29:02;101023.41;;;8.34;98.86
71970;BME280;59838;52.152;5.436;2023-03-22T00:31:29;101028.75;;;8.32;99.09
71970;BME280;59838;52.152;5.436;2023-03-22T00:33:55;101021.31;;;8.29;99.24
71970;BME280;59838;52.152;5.436;2023-03-22T00:36:21;101020.34;;;8.30;99.32
71970;BME280;59838;52.152;5.436;2023-03-22T00:38:48;101022.94;;;8.30;99.42
71970;BME280;59838;52.152;5.436;2023-03-22T00:41:17;101025.34;;;8.32;99.47
71970;BME280;59838;52.152;5.436;2023-03-22T00:43:45;101024.41;;;8.33;99.62
71970;BME280;59838;52.152;5.436;2023-03-22T00:46:14;101019.22;;;8.33;99.63
71970;BME280;59838;52.152;5.436;2023-03-22T00:48:41;101015.66;;;8.34;99.35
71970;BME280;59838;52.152;5.436;2023-03-22T00:51:08;101008.72;;;8.34;99.20
71970;BME280;59838;52.152;5.436;2023-03-22T00:53:36;101009.66;;;8.33;99.20
71970;BME280;59838;52.152;5.436;2023-03-22T00:56:04;101006.59;;;8.30;99.05
71970;BME280;59838;52.152;5.436;2023-03-22T00:58:31;101003.34;;;8.28;99.08
71970;BME280;59838;52.152;5.436;2023-03-22T01:00:57;101000.28;;;8.24;98.93
71970;BME280;59838;52.152;5.436;2023-03-22T01:03:24;100992.03;;;8.20;99.20
71970;BME280;59838;52.152;5.436;2023-03-22T01:05:52;100997.69;;;8.24;99.23
71970;BME280;59838;52.152;5.436;2023-03-22T01:08:22;100991.72;;;8.23;99.13
71970;BME280;59838;52.152;5.436;2023-03-22T01:10:48;100987.03;;;8.19;99.19
71970;BME280;59838;52.152;5.436;2023-03-22T01:13:15;100978.78;;;8.15;99.35
71970;BME280;59838;52.152;5.436;2023-03-22T01:15:43;100975.25;;;8.16;99.48
71970;BME280;59838;52.152;5.436;2023-03-22T01:18:10;100963.25;;;8.15;99.50
71970;BME280;59838;52.152;5.436;2023-03-22T01:20:36;100955.50;;;8.15;99.60
71970;BME280;59838;52.152;5.436;2023-03-22T01:23:03;100964.22;;;8.14;99.56
71970;BME280;59838;52.152;5.436;2023-03-22T01:25:30;100955.81;;;8.12;99.67
71970;BME280;59838;52.152;5.436;2023-03-22T01:27:56;100951.28;;;8.14;99.38
71970;BME280;59838;52.152;5.436;2023-03-22T01:30:23;100948.69;;;8.14;99.62
71970;BME280;59838;52.152;5.436;2023-03-22T01:32:49;100944.84;;;8.10;99.67
71970;BME280;59838;52.152;5.436;2023-03-22T01:35:16;100938.66;;;8.11;99.71
71970;BME280;59838;52.152;5.436;2023-03-22T01:37:43;100936.91;;;8.12;99.53
71970;BME280;59838;52.152;5.436;2023-03-22T01:40:11;100933.66;;;8.10;99.82
71970;BME280;59838;52.152;5.436;2023-03-22T01:42:38;100922.03;;;8.05;99.59
71970;BME280;59838;52.152;5.436;2023-03-22T01:47:47;100919.75;;;8.02;100.00
71970;BME280;59838;52.152;5.436;2023-03-22T01:50:16;100917.00;;;8.04;99.83
71970;BME280;59838;52.152;5.436;2023-03-22T01:52:43;100901.66;;;8.02;100.00
71970;BME280;59838;52.152;5.436;2023-03-22T01:55:10;100908.28;;;8.05;99.80
71970;BME280;59838;52.152;5.436;2023-03-22T01:57:39;100908.09;;;8.06;100.00
71970;BME280;59838;52.152;5.436;2023-03-22T02:00:10;100896.00;;;8.07;99.97
71970;BME280;59838;52.152;5.436;2023-03-22T02:02:42;100888.22;;;8.07;99.97
71970;BME280;59838;52.152;5.436;2023-03-22T02:05:09;100878.69;;;8.08;100.00
71970;BME280;59838;52.152;5.436;2023-03-22T02:07:38;100881.09;;;8.09;100.00
71970;BME280;59838;52.152;5.436;2023-03-22T02:10:11;100866.38;;;8.10;100.00
71970;BME280;59838;52.152;5.436;2023-03-22T02:13:21;100864.78;;;8.09;100.00
71970;BME280;59838;52.152;5.436;2023-03-22T02:16:22;100865.41;;;8.11;100.00
71970;BME280;59838;52.152;5.436;2023-03-22T02:28:23;100841.97;;;8.12;100.00
71970;BME280;59838;52.152;5.436;2023-03-22T02:36:41;100832.25;;;8.14;100.00
71970;BME280;59838;52.152;5.436;2023-03-22T02:39:23;100827.91;;;8.15;100.00
71970;BME280;59838;52.152;5.436;2023-03-22T02:45:02;100820.91;;;8.23;100.00
71970;BME280;59838;52.152;5.436;2023-03-22T02:47:42;100820.56;;;8.27;100.00
71970;BME280;59838;52.152;5.436;2023-03-22T02:50:28;100814.59;;;8.26;100.00
71970;BME280;59838;52.152;5.436;2023-03-22T02:53:09;100809.88;;;8.30;100.00
71970;BME280;59838;52.152;5.436;2023-03-22T02:56:01;100801.94;;;8.31;100.00
71970;BME280;59838;52.152;5.436;2023-03-22T02:58:33;100801.94;;;8.31;100.00
71970;BME280;59838;52.152;5.436;2023-03-22T03:01:05;100800.97;;;8.32;100.00
71970;BME280;59838;52.152;5.436;2023-03-22T03:03:33;100803.88;;;8.37;100.00
71970;BME280;59838;52.152;5.436;2023-03-22T03:06:09;100793.97;;;8.41;100.00
71970;BME280;59838;52.152;5.436;2023-03-22T03:08:39;100793.97;;;8.41;100.00
71970;BME280;59838;52.152;5.436;2023-03-22T03:11:06;100790.41;;;8.42;100.00
71970;BME280;59838;52.152;5.436;2023-03-22T03:13:32;100793.81;;;8.42;100.00
71970;BME280;59838;52.152;5.436;2023-03-22T03:15:59;100786.03;;;8.42;100.00
71970;BME280;59838;52.152;5.436;2023-03-22T03:18:37;100787.66;;;8.44;100.00
71970;BME280;59838;52.152;5.436;2023-03-22T03:29:28;100800.28;;;8.38;100.00
71970;BME280;59838;52.152;5.436;2023-03-22T03:34:51;100799.00;;;8.42;100.00
71970;BME280;59838;52.152;5.436;2023-03-22T03:37:27;100790.41;;;8.42;100.00
71970;BME280;59838;52.152;5.436;2023-03-22T03:40:04;100789.75;;;8.40;100.00
71970;BME280;59838;52.152;5.436;2023-03-22T03:42:36;100786.22;;;8.41;100.00
71970;BME280;59838;52.152;5.436;2023-03-22T03:45:04;100793.81;;;8.42;100.00
71970;BME280;59838;52.152;5.436;2023-03-22T03:47:33;100798.84;;;8.44;100.00
71970;BME280;59838;52.152;5.436;2023-03-22T03:50:03;100793.50;;;8.46;100.00
71970;BME280;59838;52.152;5.436;2023-03-22T03:52:29;100790.75;;;8.47;100.00
71970;BME280;59838;52.152;5.436;2023-03-22T03:54:56;100795.56;;;8.50;100.00
71970;BME280;59838;52.152;5.436;2023-03-22T03:57:23;100776.47;;;8.51;100.00
71970;BME280;59838;52.152;5.436;2023-03-22T03:59:50;100778.72;;;8.54;100.00
71970;BME280;59838;52.152;5.436;2023-03-22T04:02:16;100777.22;;;8.60;100.00
71970;BME280;59838;52.152;5.436;2023-03-22T04:04:42;100787.91;;;8.65;100.00
71970;BME280;59838;52.152;5.436;2023-03-22T04:07:09;100786.75;;;8.68;100.00
71970;BME280;59838;52.152;5.436;2023-03-22T04:09:37;100785.78;;;8.69;100.00
71970;BME280;59838;52.152;5.436;2023-03-22T04:12:04;100783.00;;;8.70;100.00
71970;BME280;59838;52.152;5.436;2023-03-22T04:14:30;100781.38;;;8.69;100.00
71970;BME280;59838;52.152;5.436;2023-03-22T04:16:57;100784.16;;;8.68;100.00
71970;BME280;59838;52.152;5.436;2023-03-22T04:19:23;100780.09;;;8.73;100.00
71970;BME280;59838;52.152;5.436;2023-03-22T04:21:50;100778.91;;;8.76;100.00
71970;BME280;59838;52.152;5.436;2023-03-22T04:24:19;100781.16;;;8.79;100.00
71970;BME280;59838;52.152;5.436;2023-03-22T04:26:46;100771.09;;;8.84;100.00
71970;BME280;59838;52.152;5.436;2023-03-22T04:29:13;100763.16;;;8.86;100.00
71970;BME280;59838;52.152;5.436;2023-03-22T04:31:39;100768.16;;;8.87;100.00
71970;BME280;59838;52.152;5.436;2023-03-22T04:34:06;100772.81;;;8.92;100.00
71970;BME280;59838;52.152;5.436;2023-03-22T04:36:34;100773.28;;;8.95;100.00
71970;BME280;59838;52.152;5.436;2023-03-22T04:39:07;100749.00;;;8.96;100.00
71970;BME280;59838;52.152;5.436;2023-03-22T04:41:34;100752.03;;;9.00;100.00
71970;BME280;59838;52.152;5.436;2023-03-22T04:44:02;100746.06;;;9.00;100.00
71970;BME280;59838;52.152;5.436;2023-03-22T04:46:30;100755.06;;;9.04;100.00
71970;BME280;59838;52.152;5.436;2023-03-22T04:48:57;100755.06;;;9.04;100.00
71970;BME280;59838;52.152;5.436;2023-03-22T04:51:24;100754.44;;;9.02;100.00
71970;BME280;59838;52.152;5.436;2023-03-22T04:53:51;100755.63;;;8.99;100.00
71970;BME280;59838;52.152;5.436;2023-03-22T04:56:18;100752.88;;;9.01;100.00
71970;BME280;59838;52.152;5.436;2023-03-22T04:58:45;100746.34;;;9.05;100.00
71970;BME280;59838;52.152;5.436;2023-03-22T05:01:14;100746.50;;;9.03;100.00
71970;BME280;59838;52.152;5.436;2023-03-22T05:03:41;100739.34;;;9.05;100.00
71970;BME280;59838;52.152;5.436;2023-03-22T05:06:08;100744.38;;;9.07;100.00
71970;BME280;59838;52.152;5.436;2023-03-22T05:08:35;100733.38;;;9.05;100.00
71970;BME280;59838;52.152;5.436;2023-03-22T05:11:08;100731.75;;;9.04;100.00
71970;BME280;59838;52.152;5.436;2023-03-22T05:13:35;100733.09;;;9.00;100.00
71970;BME280;59838;52.152;5.436;2023-03-22T05:16:03;100740.25;;;8.98;100.00
71970;BME280;59838;52.152;5.436;2023-03-22T05:18:31;100738.63;;;8.96;100.00
71970;BME280;59838;52.152;5.436;2023-03-22T05:20:59;100727.81;;;8.93;100.00
71970;BME280;59838;52.152;5.436;2023-03-22T05:23:25;100733.16;;;8.91;100.00
71970;BME280;59838;52.152;5.436;2023-03-22T05:25:52;100734.31;;;8.89;100.00
71970;BME280;59838;52.152;5.436;2023-03-22T05:28:20;100724.78;;;8.89;100.00
71970;BME280;59838;52.152;5.436;2023-03-22T05:30:47;100734.13;;;8.90;100.00
71970;BME280;59838;52.152;5.436;2023-03-22T05:33:14;100730.75;;;8.90;100.00
71970;BME280;59838;52.152;5.436;2023-03-22T05:35:42;100724.81;;;8.81;100.00
71970;BME280;59838;52.152;5.436;2023-03-22T05:38:09;100722.41;;;8.80;100.00
71970;BME280;59838;52.152;5.436;2023-03-22T05:40:35;100728.38;;;8.80;100.00
71970;BME280;59838;52.152;5.436;2023-03-22T05:43:02;100719.63;;;8.81;100.00
71970;BME280;59838;52.152;5.436;2023-03-22T05:45:29;100729.34;;;8.79;100.00
71970;BME280;59838;52.152;5.436;2023-03-22T05:47:57;100725.19;;;8.78;100.00
71970;BME280;59838;52.152;5.436;2023-03-22T05:50:23;100717.84;;;8.82;100.00
71970;BME280;59838;52.152;5.436;2023-03-22T05:52:50;100725.47;;;8.83;100.00
71970;BME280;59838;52.152;5.436;2023-03-22T05:55:17;100712.50;;;8.83;100.00
71970;BME280;59838;52.152;5.436;2023-03-22T05:57:45;100715.09;;;8.83;100.00
71970;BME280;59838;52.152;5.436;2023-03-22T06:00:14;100703.09;;;8.82;100.00
71970;BME280;59838;52.152;5.436;2023-03-22T06:02:42;100699.72;;;8.82;100.00
71970;BME280;59838;52.152;5.436;2023-03-22T06:05:09;100705.19;;;8.87;100.00
71970;BME280;59838;52.152;5.436;2023-03-22T06:07:39;100712.78;;;8.88;100.00
71970;BME280;59838;52.152;5.436;2023-03-22T06:10:08;100715.66;;;8.93;100.00
71970;BME280;59838;52.152;5.436;2023-03-22T06:12:36;100711.75;;;8.98;100.00
71970;BME280;59838;52.152;5.436;2023-03-22T06:15:03;100700.88;;;9.02;100.00
71970;BME280;59838;52.152;5.436;2023-03-22T06:17:30;100711.31;;;9.09;100.00
71970;BME280;59838;52.152;5.436;2023-03-22T06:19:56;100709.81;;;9.14;100.00
71970;BME280;59838;52.152;5.436;2023-03-22T06:22:23;100708.31;;;9.20;100.00
71970;BME280;59838;52.152;5.436;2023-03-22T06:24:49;100702.78;;;9.23;100.00
71970;BME280;59838;52.152;5.436;2023-03-22T06:27:16;100712.25;;;9.31;100.00
71970;BME280;59838;52.152;5.436;2023-03-22T06:29:43;100706.44;;;9.29;100.00
71970;BME280;59838;52.152;5.436;2023-03-22T06:32:15;100708.50;;;9.33;100.00
71970;BME280;59838;52.152;5.436;2023-03-22T06:34:42;100706.34;;;9.52;100.00
71970;BME280;59838;52.152;5.436;2023-03-22T06:37:09;100697.91;;;10.46;99.79
71970;BME280;59838;52.152;5.436;2023-03-22T06:39:35;100695.31;;;11.87;92.87
71970;BME280;59838;52.152;5.436;2023-03-22T06:42:02;100694.31;;;12.90;85.26
71970;BME280;59838;52.152;5.436;2023-03-22T06:44:28;100696.03;;;13.63;80.83
71970;BME280;59838;52.152;5.436;2023-03-22T06:46:55;100703.53;;;13.33;78.47
71970;BME280;59838;52.152;5.436;2023-03-22T06:49:21;100699.84;;;12.14;82.24
71970;BME280;59838;52.152;5.436;2023-03-22T06:51:47;100700.53;;;11.52;85.41
71970;BME280;59838;52.152;5.436;2023-03-22T06:54:14;100709.72;;;11.20;87.32
71970;BME280;59838;52.152;5.436;2023-03-22T06:56:42;100711.13;;;10.94;89.02
71970;BME280;59838;52.152;5.436;2023-03-22T06:59:08;100708.19;;;10.76;89.57
71970;BME280;59838;52.152;5.436;2023-03-22T07:01:34;100708.16;;;10.69;90.00
71970;BME280;59838;52.152;5.436;2023-03-22T07:04:01;100709.38;;;10.73;90.62
71970;BME280;59838;52.152;5.436;2023-03-22T07:06:28;100709.38;;;10.73;90.67
71970;BME280;59838;52.152;5.436;2023-03-22T07:08:56;100705.28;;;10.64;90.50
71970;BME280;59838;52.152;5.436;2023-03-22T07:11:22;100703.25;;;10.59;90.69
71970;BME280;59838;52.152;5.436;2023-03-22T07:13:54;100695.84;;;10.56;90.78
71970;BME280;59838;52.152;5.436;2023-03-22T07:16:21;100700.66;;;10.59;90.78
71970;BME280;59838;52.152;5.436;2023-03-22T07:18:47;100702.81;;;10.56;90.52
71970;BME280;59838;52.152;5.436;2023-03-22T07:21:14;100711.34;;;10.50;90.69
71970;BME280;59838;52.152;5.436;2023-03-22T07:23:40;100706.06;;;10.43;90.67
71970;BME280;59838;52.152;5.436;2023-03-22T07:26:07;100711.84;;;10.38;91.04
71970;BME280;59838;52.152;5.436;2023-03-22T07:28:33;100711.84;;;10.38;91.01
71970;BME280;59838;52.152;5.436;2023-03-22T07:31:02;100706.47;;;10.40;90.72
71970;BME280;59838;52.152;5.436;2023-03-22T07:33:29;100700.50;;;10.46;90.94
71970;BME280;59838;52.152;5.436;2023-03-22T07:35:58;100703.44;;;10.58;90.54
71970;BME280;59838;52.152;5.436;2023-03-22T07:38:24;100699.34;;;10.70;89.90
71970;BME280;59838;52.152;5.436;2023-03-22T07:40:51;100698.41;;;10.78;89.05
71970;BME280;59838;52.152;5.436;2023-03-22T07:43:20;100707.19;;;10.77;88.81
71970;BME280;59838;52.152;5.436;2023-03-22T07:45:48;100710.44;;;10.79;89.12
71970;BME280;59838;52.152;5.436;2023-03-22T07:48:15;100697.06;;;10.82;89.27
71970;BME280;59838;52.152;5.436;2023-03-22T07:50:42;100698.69;;;10.90;88.57
71970;BME280;59838;52.152;5.436;2023-03-22T07:53:09;100709.56;;;10.93;88.43
71970;BME280;59838;52.152;5.436;2023-03-22T07:55:37;100700.09;;;10.86;88.26
71970;BME280;59838;52.152;5.436;2023-03-22T07:58:04;100709.28;;;10.88;88.73
71970;BME280;59838;52.152;5.436;2023-03-22T08:00:31;100697.97;;;10.96;88.36
71970;BME280;59838;52.152;5.436;2023-03-22T08:02:58;100707.38;;;10.97;87.77
71970;BME280;59838;52.152;5.436;2023-03-22T08:05:24;100711.53;;;11.20;88.02
71970;BME280;59838;52.152;5.436;2023-03-22T08:07:50;100704.19;;;11.30;87.48
71970;BME280;59838;52.152;5.436;2023-03-22T08:10:17;100696.41;;;11.30;85.99
71970;BME280;59838;52.152;5.436;2023-03-22T08:12:44;100691.66;;;11.40;86.12
71970;BME280;59838;52.152;5.436;2023-03-22T08:15:11;100699.78;;;11.59;85.21
71970;BME280;59838;52.152;5.436;2023-03-22T08:17:38;100695.97;;;11.61;84.56
71970;BME280;59838;52.152;5.436;2023-03-22T08:20:05;100697.19;;;11.59;84.96
71970;BME280;59838;52.152;5.436;2023-03-22T08:22:35;100697.13;;;11.52;84.32
71970;BME280;59838;52.152;5.436;2023-03-22T08:25:03;100699.91;;;11.44;84.43
71970;BME280;59838;52.152;5.436;2023-03-22T08:27:30;100695.78;;;11.28;83.65
71970;BME280;59838;52.152;5.436;2023-03-22T08:29:56;100697.72;;;11.19;84.41
71970;BME280;59838;52.152;5.436;2023-03-22T08:32:23;100696.13;;;11.18;85.10
71970;BME280;59838;52.152;5.436;2023-03-22T08:34:50;100698.53;;;11.20;85.47
71970;BME280;59838;52.152;5.436;2023-03-22T08:37:18;100690.56;;;11.21;85.64
71970;BME280;59838;52.152;5.436;2023-03-22T08:39:47;100695.38;;;11.24;84.86
71970;BME280;59838;52.152;5.436;2023-03-22T08:42:14;100693.59;;;11.31;85.93
71970;BME280;59838;52.152;5.436;2023-03-22T08:44:40;100692.25;;;11.36;84.98
71970;BME280;59838;52.152;5.436;2023-03-22T08:47:07;100689.91;;;11.47;85.42
71970;BME280;59838;52.152;5.436;2023-03-22T08:49:33;100678.72;;;11.47;83.93
71970;BME280;59838;52.152;5.436;2023-03-22T08:52:00;100690.69;;;11.48;84.76
71970;BME280;59838;52.152;5.436;2023-03-22T08:54:26;100680.31;;;11.55;84.70
71970;BME280;59838;52.152;5.436;2023-03-22T08:56:58;100680.13;;;11.56;83.69
71970;BME280;59838;52.152;5.436;2023-03-22T08:59:26;100680.31;;;11.55;83.69
71970;BME280;59838;52.152;5.436;2023-03-22T09:01:52;100682.91;;;11.48;83.33
71970;BME280;59838;52.152;5.436;2023-03-22T09:04:19;100677.06;;;11.39;83.55
71970;BME280;59838;52.152;5.436;2023-03-22T09:06:45;100681.22;;;11.33;83.39
71970;BME280;59838;52.152;5.436;2023-03-22T09:09:12;100689.81;;;11.27;83.67
71970;BME280;59838;52.152;5.436;2023-03-22T09:11:38;100683.34;;;11.23;83.43
71970;BME280;59838;52.152;5.436;2023-03-22T09:14:10;100688.97;;;11.27;83.01
71970;BME280;59838;52.152;5.436;2023-03-22T09:16:36;100690.97;;;11.25;82.58
71970;BME280;59838;52.152;5.436;2023-03-22T09:19:03;100688.97;;;11.27;84.01
71970;BME280;59838;52.152;5.436;2023-03-22T09:21:29;100692.63;;;11.32;83.69
71970;BME280;59838;52.152;5.436;2023-03-22T09:23:56;100698.25;;;11.36;82.96
71970;BME280;59838;52.152;5.436;2023-03-22T09:26:23;100702.47;;;11.37;83.74
71970;BME280;59838;52.152;5.436;2023-03-22T09:28:50;100687.88;;;11.43;83.70
71970;BME280;59838;52.152;5.436;2023-03-22T09:31:17;100687.47;;;11.39;83.80
71970;BME280;59838;52.152;5.436;2023-03-22T09:33:46;100694.41;;;11.32;84.68
71970;BME280;59838;52.152;5.436;2023-03-22T09:36:12;100701.41;;;11.31;85.27
71970;BME280;59838;52.152;5.436;2023-03-22T09:38:39;100706.81;;;11.30;85.99
71970;BME280;59838;52.152;5.436;2023-03-22T09:41:12;100690.56;;;11.21;85.24
71970;BME280;59838;52.152;5.436;2023-03-22T09:43:45;100691.69;;;11.12;86.93
71970;BME280;59838;52.152;5.436;2023-03-22T09:46:17;100700.84;;;11.08;87.31
71970;BME280;59838;52.152;5.436;2023-03-22T09:48:46;100712.44;;;11.05;88.08
71970;BME280;59838;52.152;5.436;2023-03-22T09:51:38;100701.16;;;10.98;88.81
71970;BME280;59838;52.152;5.436;2023-03-22T09:56:41;100705.16;;;10.94;90.90
71970;BME280;59838;52.152;5.436;2023-03-22T09:59:16;100695.53;;;10.94;91.65
71970;BME280;59838;52.152;5.436;2023-03-22T10:02:42;100696.66;;;10.85;91.80
71970;BME280;59838;52.152;5.436;2023-03-22T10:05:13;100681.59;;;10.74;92.23
71970;BME280;59838;52.152;5.436;2023-03-22T10:10:29;100694.88;;;10.64;93.66
71970;BME280;59838;52.152;5.436;2023-03-22T10:15:33;100694.47;;;10.60;94.82
71970;BME280;59838;52.152;5.436;2023-03-22T10:18:05;100689.63;;;10.57;95.55
71970;BME280;59838;52.152;5.436;2023-03-22T10:20:43;100697.00;;;10.54;95.62
71970;BME280;59838;52.152;5.436;2023-03-22T10:23:28;100690.00;;;10.54;96.10
71970;BME280;59838;52.152;5.436;2023-03-22T10:25:57;100691.81;;;10.54;96.19
71970;BME280;59838;52.152;5.436;2023-03-22T10:28:32;100693.78;;;10.52;96.21
71970;BME280;59838;52.152;5.436;2023-03-22T10:31:00;100683.03;;;10.55;96.68
71970;BME280;59838;52.152;5.436;2023-03-22T10:33:36;100697.78;;;10.54;96.36
71970;BME280;59838;52.152;5.436;2023-03-22T10:36:05;100698.44;;;10.56;96.97
71970;BME280;59838;52.152;5.436;2023-03-22T10:38:37;100697.00;;;10.54;97.05
71970;BME280;59838;52.152;5.436;2023-03-22T10:41:07;100701.22;;;10.55;96.89
71970;BME280;59838;52.152;5.436;2023-03-22T10:43:36;100692.41;;;10.56;97.37
71970;BME280;59838;52.152;5.436;2023-03-22T10:46:05;100704.00;;;10.53;97.04
71970;BME280;59838;52.152;5.436;2023-03-22T10:48:38;100698.78;;;10.53;97.28
71970;BME280;59838;52.152;5.436;2023-03-22T10:51:06;100697.00;;;10.54;97.29
71970;BME280;59838;52.152;5.436;2023-03-22T10:53:38;100689.94;;;10.48;96.79
71970;BME280;59838;52.152;5.436;2023-03-22T10:56:11;100705.09;;;10.44;97.31
71970;BME280;59838;52.152;5.436;2023-03-22T10:58:39;100702.06;;;10.40;97.73
71970;BME280;59838;52.152;5.436;2023-03-22T11:01:11;100704.28;;;10.43;98.44
71970;BME280;59838;52.152;5.436;2023-03-22T11:03:43;100688.41;;;10.53;98.50
71970;BME280;59838;52.152;5.436;2023-03-22T11:06:16;100689.19;;;10.54;97.84
71970;BME280;59838;52.152;5.436;2023-03-22T11:08:48;100691.44;;;10.57;98.24
71970;BME280;59838;52.152;5.436;2023-03-22T11:11:19;100678.88;;;10.60;98.06
71970;BME280;59838;52.152;5.436;2023-03-22T11:14:06;100667.56;;;10.68;98.30
71970;BME280;59838;52.152;5.436;2023-03-22T11:16:51;100670.63;;;10.78;97.96
71970;BME280;59838;52.152;5.436;2023-03-22T11:19:50;100675.06;;;10.85;97.76
71970;BME280;59838;52.152;5.436;2023-03-22T11:24:45;100673.22;;;10.78;96.87
71970;BME280;59838;52.152;5.436;2023-03-22T11:29:45;100659.72;;;10.90;97.34
71970;BME280;59838;52.152;5.436;2023-03-22T11:32:21;100672.34;;;10.93;96.30
71970;BME280;59838;52.152;5.436;2023-03-22T11:35:04;100678.53;;;10.92;95.70
71970;BME280;59838;52.152;5.436;2023-03-22T11:37:31;100675.31;;;10.90;96.03
71970;BME280;59838;52.152;5.436;2023-03-22T11:40:01;100667.13;;;10.93;95.79
71970;BME280;59838;52.152;5.436;2023-03-22T11:42:32;100665.19;;;10.95;96.04
71970;BME280;59838;52.152;5.436;2023-03-22T11:44:59;100685.56;;;10.98;95.82
71970;BME280;59838;52.152;5.436;2023-03-22T11:47:31;100667.56;;;10.96;95.49
71970;BME280;59838;52.152;5.436;2023-03-22T11:50:03;100690.41;;;11.01;96.23
71970;BME280;59838;52.152;5.436;2023-03-22T11:52:30;100680.00;;;11.01;95.70
71970;BME280;59838;52.152;5.436;2023-03-22T11:54:58;100677.22;;;11.03;95.95
71970;BME280;59838;52.152;5.436;2023-03-22T11:57:28;100686.03;;;11.02;95.40
71970;BME280;59838;52.152;5.436;2023-03-22T12:00:11;100683.97;;;10.97;95.61
71970;BME280;59838;52.152;5.436;2023-03-22T12:02:50;100698.16;;;10.94;95.34
71970;BME280;59838;52.152;5.436;2023-03-22T12:05:24;100695.91;;;10.91;95.32
71970;BME280;59838;52.152;5.436;2023-03-22T12:08:03;100703.91;;;10.90;95.37
71970;BME280;59838;52.152;5.436;2023-03-22T12:10:43;100703.09;;;10.89;95.68
71970;BME280;59838;52.152;5.436;2023-03-22T12:13:56;100695.50;;;10.88;95.51
71970;BME280;59838;52.152;5.436;2023-03-22T12:16:33;100693.88;;;10.87;94.78
71970;BME280;59838;52.152;5.436;2023-03-22T12:19:23;100697.91;;;10.89;94.94
71970;BME280;59838;52.152;5.436;2023-03-22T12:21:52;100686.34;;;10.92;94.87
71970;BME280;59838;52.152;5.436;2023-03-22T12:24:27;100682.53;;;10.94;95.09
71970;BME280;59838;52.152;5.436;2023-03-22T12:32:31;100687.56;;;10.96;94.14
71970;BME280;59838;52.152;5.436;2023-03-22T12:34:59;100684.97;;;10.96;94.32
71970;BME280;59838;52.152;5.436;2023-03-22T12:37:47;100691.59;;;10.98;94.45
71970;BME280;59838;52.152;5.436;2023-03-22T12:40:32;100693.38;;;10.98;94.24
71970;BME280;59838;52.152;5.436;2023-03-22T12:43:16;100690.16;;;10.96;94.25
71970;BME280;59838;52.152;5.436;2023-03-22T12:45:53;100682.97;;;10.98;93.93
71970;BME280;59838;52.152;5.436;2023-03-22T12:50:58;100679.19;;;11.01;94.01
71970;BME280;59838;52.152;5.436;2023-03-22T12:53:29;100677.41;;;11.01;93.99
71970;BME280;59838;52.152;5.436;2023-03-22T12:55:59;100673.22;;;11.00;93.78
71970;BME280;59838;52.152;5.436;2023-03-22T12:58:26;100673.81;;;11.02;93.92
71970;BME280;59838;52.152;5.436;2023-03-22T13:00:59;100673.63;;;11.04;93.88
71970;BME280;59838;52.152;5.436;2023-03-22T13:03:47;100667.03;;;11.08;94.05
71970;BME280;59838;52.152;5.436;2023-03-22T13:12:30;100681.28;;;11.12;93.91
71970;BME280;59838;52.152;5.436;2023-03-22T13:15:00;100676.88;;;11.12;94.06
71970;BME280;59838;52.152;5.436;2023-03-22T13:25:12;100682.59;;;11.01;94.44
71970;BME280;59838;52.152;5.436;2023-03-22T13:30:22;100679.63;;;11.04;94.93
71970;BME280;59838;52.152;5.436;2023-03-22T13:32:52;100684.63;;;11.06;94.54
71970;BME280;59838;52.152;5.436;2023-03-22T13:35:27;100683.84;;;11.05;94.37
71970;BME280;59838;52.152;5.436;2023-03-22T13:38:02;100674.66;;;11.09;93.92
71970;BME280;59838;52.152;5.436;2023-03-22T13:43:34;100674.91;;;11.14;94.58
71970;BME280;59838;52.152;5.436;2023-03-22T13:51:10;100678.50;;;11.13;95.13
71970;BME280;59838;52.152;5.436;2023-03-22T13:53:40;100680.31;;;11.13;95.69
71970;BME280;59838;52.152;5.436;2023-03-22T13:56:10;100668.09;;;11.13;95.54
71970;BME280;59838;52.152;5.436;2023-03-22T14:01:16;100672.31;;;11.14;95.96
71970;BME280;59838;52.152;5.436;2023-03-22T14:03:48;100674.50;;;11.18;96.30
71970;BME280;59838;52.152;5.436;2023-03-22T14:06:26;100672.53;;;11.20;97.09
71970;BME280;59838;52.152;5.436;2023-03-22T14:09:00;100669.75;;;11.21;96.75
71970;BME280;59838;52.152;5.436;2023-03-22T14:11:42;100667.75;;;11.23;96.91
71970;BME280;59838;52.152;5.436;2023-03-22T14:14:12;100656.75;;;11.21;96.56
71970;BME280;59838;52.152;5.436;2023-03-22T14:16:45;100650.53;;;11.22;96.61
71970;BME280;59838;52.152;5.436;2023-03-22T14:19:19;100650.34;;;11.24;96.20
71970;BME280;59838;52.152;5.436;2023-03-22T14:21:53;100649.59;;;11.30;96.50
71970;BME280;59838;52.152;5.436;2023-03-22T14:24:21;100650.19;;;11.32;96.26
71970;BME280;59838;52.152;5.436;2023-03-22T14:26:52;100642.00;;;11.35;96.59
71970;BME280;59838;52.152;5.436;2023-03-22T14:29:20;100631.59;;;11.35;96.51